Rogers, MN (55374)

12:03 PM CST on January 16, 2017 (GMT -0600)
Fox Creek | | Change Station

Elev 932 ft 45.19 °N, 93.56 °W | Updated 17 minutes ago

Overcast
Overcast
27.6 °F
Feels Like 28 °F
N
0.0
Wind Variable Wind from ESE

Today
High -- | Low -- °F
--% Chance of Precip.
Yesterday
High -- | Low -- °F
Precip. -- in
Pressure 30.17 in
Visibility 6.0 miles
Clouds Mostly Cloudy 1000 ft
Windchill 28 °F
Dew Point 20 °F
Humidity 74%
Rainfall 0.00 in
Snow Depth Not available.
7:48 AM 4:59 PM
Waning Gibbous, 79% visible
METAR KMIC 161753Z 12003KT 6SM HZ BKN010 M03/M09 A3013 RMK AO2 CIG 008V012 SLP216 I6000 T10331089 11033 21133 58010
Pressure 30.17 in
Visibility 6.0 miles
Clouds Mostly Cloudy 1000 ft
Windchill 28 °F
Dew Point 20 °F
Humidity 74%
Rainfall 0.00 in
Snow Depth Not available.
7:48 AM 4:59 PM
Waning Gibbous, 79% visible
METAR KMIC 161753Z 12003KT 6SM HZ BKN010 M03/M09 A3013 RMK AO2 CIG 008V012 SLP216 I6000 T10331089 11033 21133 58010

Get Your Daily Forecast Email!

Thanks for signing up!

Be on the lookout for a verification email in your inbox.

You'll start receiving the daily forecast at 8 AM.

×

10-Day Weather Forecast

Almanac

Astronomy

Jan. 16, 2017 Rise Set
Actual Time
Civil Twilight
Nautical Twilight
Astronomical Twilight
Moon
Length of Visible Light
Length of Day
Tomorrow will be .
, % of the Moon is Illuminated

Today's Extremes

State Highs State Lows

Community

WunderPhotos

Upload Photos

1,962,540 photos uploaded!

WunderBlog® & News

Nearby

Air Quality

  Air Quality AQ Index Pollutant
Not available.

Snow Depth

Station Depth Elevation

Earthquake Activity

City Distance Mag. Time & Date
Minimum magnitude displayed is 2.5.

Coastal Water Temperatures

Place Temperature

Stations

Nearby Weather Stations

Station Location Temp. Windchill Dew Point Humidity Wind Precip. Elev Updated Type
                   

Watches & Warnings

There are currently no watches in effect.